sensor_id;sensor_type;location;lat;lon;timestamp;P1;durP1;ratioP1;P2;durP2;ratioP2
69083;SDS011;56185;48.526;9.044;2022-09-03T00:00:46;5.63;;;2.30;;
69083;SDS011;56185;48.526;9.044;2022-09-03T00:03:17;5.40;;;2.20;;
69083;SDS011;56185;48.526;9.044;2022-09-03T00:08:43;4.05;;;2.10;;
69083;SDS011;56185;48.526;9.044;2022-09-03T00:16:24;4.40;;;2.33;;
69083;SDS011;56185;48.526;9.044;2022-09-03T00:18:54;4.63;;;2.50;;
69083;SDS011;56185;48.526;9.044;2022-09-03T00:21:32;7.93;;;2.33;;
69083;SDS011;56185;48.526;9.044;2022-09-03T00:24:05;4.70;;;2.40;;
69083;SDS011;56185;48.526;9.044;2022-09-03T00:26:34;4.80;;;2.30;;
69083;SDS011;56185;48.526;9.044;2022-09-03T00:29:02;5.28;;;2.67;;
69083;SDS011;56185;48.526;9.044;2022-09-03T00:31:44;6.15;;;2.30;;
69083;SDS011;56185;48.526;9.044;2022-09-03T00:34:14;4.28;;;2.50;;
69083;SDS011;56185;48.526;9.044;2022-09-03T00:36:44;3.22;;;2.40;;
69083;SDS011;56185;48.526;9.044;2022-09-03T00:39:11;2.67;;;2.25;;
69083;SDS011;56185;48.526;9.044;2022-09-03T00:41:39;3.85;;;1.98;;
69083;SDS011;56185;48.526;9.044;2022-09-03T00:47:28;2.35;;;1.80;;
69083;SDS011;56185;48.526;9.044;2022-09-03T00:50:18;2.38;;;2.03;;
69083;SDS011;56185;48.526;9.044;2022-09-03T00:55:30;2.90;;;2.07;;
69083;SDS011;56185;48.526;9.044;2022-09-03T01:01:35;4.25;;;2.15;;
69083;SDS011;56185;48.526;9.044;2022-09-03T01:04:14;5.00;;;2.10;;
69083;SDS011;56185;48.526;9.044;2022-09-03T01:10:05;2.65;;;2.13;;
69083;SDS011;56185;48.526;9.044;2022-09-03T01:12:46;2.58;;;2.03;;
69083;SDS011;56185;48.526;9.044;2022-09-03T01:18:23;2.92;;;1.95;;
69083;SDS011;56185;48.526;9.044;2022-09-03T01:24:03;5.25;;;2.10;;
69083;SDS011;56185;48.526;9.044;2022-09-03T01:29:33;5.68;;;1.83;;
69083;SDS011;56185;48.526;9.044;2022-09-03T01:32:18;2.97;;;1.92;;
69083;SDS011;56185;48.526;9.044;2022-09-03T01:37:33;2.53;;;1.80;;
69083;SDS011;56185;48.526;9.044;2022-09-03T01:40:26;4.75;;;2.38;;
69083;SDS011;56185;48.526;9.044;2022-09-03T01:51:02;5.40;;;2.10;;
69083;SDS011;56185;48.526;9.044;2022-09-03T01:59:30;2.83;;;1.80;;
69083;SDS011;56185;48.526;9.044;2022-09-03T02:02:08;2.55;;;1.92;;
69083;SDS011;56185;48.526;9.044;2022-09-03T02:04:40;3.00;;;2.20;;
69083;SDS011;56185;48.526;9.044;2022-09-03T02:07:05;3.33;;;1.90;;
69083;SDS011;56185;48.526;9.044;2022-09-03T02:09:30;3.10;;;2.20;;
69083;SDS011;56185;48.526;9.044;2022-09-03T02:12:05;3.20;;;2.00;;
69083;SDS011;56185;48.526;9.044;2022-09-03T02:14:34;3.90;;;1.90;;
69083;SDS011;56185;48.526;9.044;2022-09-03T02:17:00;4.18;;;2.00;;
69083;SDS011;56185;48.526;9.044;2022-09-03T02:19:27;3.63;;;2.13;;
69083;SDS011;56185;48.526;9.044;2022-09-03T02:21:54;4.07;;;2.00;;
69083;SDS011;56185;48.526;9.044;2022-09-03T02:24:21;2.85;;;1.80;;
69083;SDS011;56185;48.526;9.044;2022-09-03T02:26:47;2.42;;;2.10;;
69083;SDS011;56185;48.526;9.044;2022-09-03T02:29:15;6.43;;;2.17;;
69083;SDS011;56185;48.526;9.044;2022-09-03T02:31:42;4.25;;;2.17;;
69083;SDS011;56185;48.526;9.044;2022-09-03T02:34:08;3.17;;;2.15;;
69083;SDS011;56185;48.526;9.044;2022-09-03T02:36:34;3.47;;;1.92;;
69083;SDS011;56185;48.526;9.044;2022-09-03T02:39:03;7.20;;;2.08;;
69083;SDS011;56185;48.526;9.044;2022-09-03T02:41:28;4.45;;;2.30;;
69083;SDS011;56185;48.526;9.044;2022-09-03T02:44:01;3.15;;;2.10;;
69083;SDS011;56185;48.526;9.044;2022-09-03T02:46:38;3.10;;;2.10;;
69083;SDS011;56185;48.526;9.044;2022-09-03T02:49:07;4.30;;;2.10;;
69083;SDS011;56185;48.526;9.044;2022-09-03T02:51:33;4.47;;;2.15;;
69083;SDS011;56185;48.526;9.044;2022-09-03T02:54:00;2.55;;;2.17;;
69083;SDS011;56185;48.526;9.044;2022-09-03T02:56:25;3.17;;;2.50;;
69083;SDS011;56185;48.526;9.044;2022-09-03T02:58:50;5.63;;;2.50;;
69083;SDS011;56185;48.526;9.044;2022-09-03T03:01:16;4.33;;;2.50;;
69083;SDS011;56185;48.526;9.044;2022-09-03T03:03:41;8.17;;;2.80;;
69083;SDS011;56185;48.526;9.044;2022-09-03T03:06:06;2.70;;;2.35;;
69083;SDS011;56185;48.526;9.044;2022-09-03T03:08:32;4.10;;;2.50;;
69083;SDS011;56185;48.526;9.044;2022-09-03T03:10:57;7.17;;;2.57;;
69083;SDS011;56185;48.526;9.044;2022-09-03T03:13:27;4.68;;;2.30;;
69083;SDS011;56185;48.526;9.044;2022-09-03T03:16:00;4.25;;;2.28;;
69083;SDS011;56185;48.526;9.044;2022-09-03T03:18:27;3.13;;;2.45;;
69083;SDS011;56185;48.526;9.044;2022-09-03T03:20:52;4.90;;;2.60;;
69083;SDS011;56185;48.526;9.044;2022-09-03T03:23:18;5.18;;;2.40;;
69083;SDS011;56185;48.526;9.044;2022-09-03T03:25:43;3.70;;;2.50;;
69083;SDS011;56185;48.526;9.044;2022-09-03T03:28:08;2.83;;;2.40;;
69083;SDS011;56185;48.526;9.044;2022-09-03T03:30:35;3.63;;;2.30;;
69083;SDS011;56185;48.526;9.044;2022-09-03T03:33:02;3.47;;;2.22;;
69083;SDS011;56185;48.526;9.044;2022-09-03T03:35:27;4.93;;;2.30;;
69083;SDS011;56185;48.526;9.044;2022-09-03T03:37:53;5.05;;;2.40;;
69083;SDS011;56185;48.526;9.044;2022-09-03T03:40:18;2.90;;;2.30;;
69083;SDS011;56185;48.526;9.044;2022-09-03T03:42:43;5.17;;;2.17;;
69083;SDS011;56185;48.526;9.044;2022-09-03T03:45:08;2.67;;;2.20;;
69083;SDS011;56185;48.526;9.044;2022-09-03T03:47:34;3.28;;;2.33;;
69083;SDS011;56185;48.526;9.044;2022-09-03T03:50:00;2.72;;;2.13;;
69083;SDS011;56185;48.526;9.044;2022-09-03T03:52:26;2.90;;;2.20;;
69083;SDS011;56185;48.526;9.044;2022-09-03T03:54:51;5.93;;;2.30;;
69083;SDS011;56185;48.526;9.044;2022-09-03T03:57:17;3.55;;;2.63;;
69083;SDS011;56185;48.526;9.044;2022-09-03T03:59:44;3.65;;;2.20;;
69083;SDS011;56185;48.526;9.044;2022-09-03T04:02:10;7.45;;;2.60;;
69083;SDS011;56185;48.526;9.044;2022-09-03T04:04:36;3.28;;;2.30;;
69083;SDS011;56185;48.526;9.044;2022-09-03T04:07:01;4.50;;;2.20;;
69083;SDS011;56185;48.526;9.044;2022-09-03T04:09:26;3.85;;;2.30;;
69083;SDS011;56185;48.526;9.044;2022-09-03T04:11:51;5.50;;;2.40;;
69083;SDS011;56185;48.526;9.044;2022-09-03T04:14:17;2.38;;;2.00;;
69083;SDS011;56185;48.526;9.044;2022-09-03T04:16:42;2.63;;;2.10;;
69083;SDS011;56185;48.526;9.044;2022-09-03T04:19:07;6.80;;;2.20;;
69083;SDS011;56185;48.526;9.044;2022-09-03T04:21:32;5.03;;;2.07;;
69083;SDS011;56185;48.526;9.044;2022-09-03T04:23:58;6.47;;;2.30;;
69083;SDS011;56185;48.526;9.044;2022-09-03T04:26:24;2.30;;;1.93;;
69083;SDS011;56185;48.526;9.044;2022-09-03T04:28:51;4.53;;;2.35;;
69083;SDS011;56185;48.526;9.044;2022-09-03T04:31:17;4.68;;;2.20;;
69083;SDS011;56185;48.526;9.044;2022-09-03T04:33:44;3.85;;;2.20;;
69083;SDS011;56185;48.526;9.044;2022-09-03T04:36:10;3.17;;;2.40;;
69083;SDS011;56185;48.526;9.044;2022-09-03T04:38:40;3.30;;;2.28;;
69083;SDS011;56185;48.526;9.044;2022-09-03T04:41:08;3.25;;;2.30;;
69083;SDS011;56185;48.526;9.044;2022-09-03T04:43:35;2.72;;;2.05;;
69083;SDS011;56185;48.526;9.044;2022-09-03T04:46:01;3.20;;;2.17;;
69083;SDS011;56185;48.526;9.044;2022-09-03T04:48:29;2.55;;;2.00;;
69083;SDS011;56185;48.526;9.044;2022-09-03T04:51:02;4.57;;;2.38;;
69083;SDS011;56185;48.526;9.044;2022-09-03T04:53:30;4.87;;;2.40;;
69083;SDS011;56185;48.526;9.044;2022-09-03T04:56:02;3.60;;;2.50;;
69083;SDS011;56185;48.526;9.044;2022-09-03T04:58:35;3.60;;;2.30;;
69083;SDS011;56185;48.526;9.044;2022-09-03T05:01:06;4.07;;;2.40;;
69083;SDS011;56185;48.526;9.044;2022-09-03T05:03:35;4.18;;;2.50;;
69083;SDS011;56185;48.526;9.044;2022-09-03T05:06:00;3.57;;;2.50;;
69083;SDS011;56185;48.526;9.044;2022-09-03T05:08:25;3.33;;;2.33;;
69083;SDS011;56185;48.526;9.044;2022-09-03T05:10:56;2.90;;;2.20;;
69083;SDS011;56185;48.526;9.044;2022-09-03T05:13:23;3.00;;;2.38;;
69083;SDS011;56185;48.526;9.044;2022-09-03T05:15:48;3.30;;;2.47;;
69083;SDS011;56185;48.526;9.044;2022-09-03T05:18:13;3.63;;;2.30;;
69083;SDS011;56185;48.526;9.044;2022-09-03T05:20:38;3.80;;;2.33;;
69083;SDS011;56185;48.526;9.044;2022-09-03T05:23:04;5.10;;;2.50;;
69083;SDS011;56185;48.526;9.044;2022-09-03T05:25:29;3.28;;;2.45;;
69083;SDS011;56185;48.526;9.044;2022-09-03T05:27:54;3.20;;;2.60;;
69083;SDS011;56185;48.526;9.044;2022-09-03T05:30:20;6.65;;;2.70;;
69083;SDS011;56185;48.526;9.044;2022-09-03T05:32:45;3.27;;;2.60;;
69083;SDS011;56185;48.526;9.044;2022-09-03T05:35:10;8.17;;;2.60;;
69083;SDS011;56185;48.526;9.044;2022-09-03T05:37:35;3.60;;;2.60;;
69083;SDS011;56185;48.526;9.044;2022-09-03T05:40:01;4.45;;;2.50;;
69083;SDS011;56185;48.526;9.044;2022-09-03T05:42:27;4.35;;;2.42;;
69083;SDS011;56185;48.526;9.044;2022-09-03T05:44:52;5.43;;;2.60;;
69083;SDS011;56185;48.526;9.044;2022-09-03T05:47:18;4.43;;;2.70;;
69083;SDS011;56185;48.526;9.044;2022-09-03T05:49:43;5.70;;;2.40;;
69083;SDS011;56185;48.526;9.044;2022-09-03T05:52:08;3.67;;;2.50;;
69083;SDS011;56185;48.526;9.044;2022-09-03T05:54:33;5.80;;;2.90;;
69083;SDS011;56185;48.526;9.044;2022-09-03T05:56:59;5.13;;;2.70;;
69083;SDS011;56185;48.526;9.044;2022-09-03T05:59:24;3.80;;;2.53;;
69083;SDS011;56185;48.526;9.044;2022-09-03T06:01:49;4.07;;;2.40;;
69083;SDS011;56185;48.526;9.044;2022-09-03T06:04:15;6.40;;;2.60;;
69083;SDS011;56185;48.526;9.044;2022-09-03T06:06:41;4.65;;;2.40;;
69083;SDS011;56185;48.526;9.044;2022-09-03T06:09:09;4.15;;;2.47;;
69083;SDS011;56185;48.526;9.044;2022-09-03T06:11:37;3.38;;;2.50;;
69083;SDS011;56185;48.526;9.044;2022-09-03T06:14:04;3.97;;;2.70;;
69083;SDS011;56185;48.526;9.044;2022-09-03T06:16:31;3.60;;;2.58;;
69083;SDS011;56185;48.526;9.044;2022-09-03T06:18:58;3.30;;;2.60;;
69083;SDS011;56185;48.526;9.044;2022-09-03T06:21:24;3.83;;;2.80;;
69083;SDS011;56185;48.526;9.044;2022-09-03T06:23:50;3.50;;;2.73;;
69083;SDS011;56185;48.526;9.044;2022-09-03T06:26:16;3.75;;;2.55;;
69083;SDS011;56185;48.526;9.044;2022-09-03T06:28:42;3.95;;;2.75;;
69083;SDS011;56185;48.526;9.044;2022-09-03T06:31:09;4.65;;;2.72;;
69083;SDS011;56185;48.526;9.044;2022-09-03T06:33:36;6.07;;;2.67;;
69083;SDS011;56185;48.526;9.044;2022-09-03T06:36:03;3.28;;;2.70;;
69083;SDS011;56185;48.526;9.044;2022-09-03T06:38:30;4.28;;;2.65;;
69083;SDS011;56185;48.526;9.044;2022-09-03T06:40:58;3.75;;;2.55;;
69083;SDS011;56185;48.526;9.044;2022-09-03T06:43:24;4.25;;;2.75;;
69083;SDS011;56185;48.526;9.044;2022-09-03T06:45:56;4.87;;;3.00;;
69083;SDS011;56185;48.526;9.044;2022-09-03T06:48:23;3.22;;;2.50;;
69083;SDS011;56185;48.526;9.044;2022-09-03T06:50:53;5.18;;;2.58;;
69083;SDS011;56185;48.526;9.044;2022-09-03T06:53:23;3.58;;;2.60;;
69083;SDS011;56185;48.526;9.044;2022-09-03T06:55:53;5.85;;;2.97;;
69083;SDS011;56185;48.526;9.044;2022-09-03T06:58:23;3.97;;;2.35;;
69083;SDS011;56185;48.526;9.044;2022-09-03T07:00:49;5.03;;;2.95;;
69083;SDS011;56185;48.526;9.044;2022-09-03T07:03:15;7.13;;;3.03;;
69083;SDS011;56185;48.526;9.044;2022-09-03T07:05:40;3.50;;;2.60;;
69083;SDS011;56185;48.526;9.044;2022-09-03T07:08:05;6.40;;;3.00;;
69083;SDS011;56185;48.526;9.044;2022-09-03T07:10:30;4.23;;;2.50;;
69083;SDS011;56185;48.526;9.044;2022-09-03T07:12:56;4.63;;;2.40;;
69083;SDS011;56185;48.526;9.044;2022-09-03T07:15:21;4.97;;;2.53;;
69083;SDS011;56185;48.526;9.044;2022-09-03T07:17:46;4.03;;;2.73;;
69083;SDS011;56185;48.526;9.044;2022-09-03T07:20:11;6.33;;;4.13;;
69083;SDS011;56185;48.526;9.044;2022-09-03T07:22:37;4.30;;;3.00;;
69083;SDS011;56185;48.526;9.044;2022-09-03T07:25:02;3.53;;;2.50;;
69083;SDS011;56185;48.526;9.044;2022-09-03T07:27:27;4.18;;;3.00;;
69083;SDS011;56185;48.526;9.044;2022-09-03T07:29:53;6.83;;;2.70;;
69083;SDS011;56185;48.526;9.044;2022-09-03T07:32:18;6.03;;;2.60;;
69083;SDS011;56185;48.526;9.044;2022-09-03T07:34:43;3.70;;;2.50;;
69083;SDS011;56185;48.526;9.044;2022-09-03T07:37:08;3.77;;;2.70;;
69083;SDS011;56185;48.526;9.044;2022-09-03T07:39:34;6.90;;;2.70;;
69083;SDS011;56185;48.526;9.044;2022-09-03T07:41:59;4.33;;;2.80;;
69083;SDS011;56185;48.526;9.044;2022-09-03T07:44:24;6.53;;;3.10;;
69083;SDS011;56185;48.526;9.044;2022-09-03T07:46:49;3.23;;;2.80;;
69083;SDS011;56185;48.526;9.044;2022-09-03T07:49:15;3.67;;;2.87;;
69083;SDS011;56185;48.526;9.044;2022-09-03T07:51:40;3.92;;;3.10;;
69083;SDS011;56185;48.526;9.044;2022-09-03T07:54:09;4.95;;;3.00;;
69083;SDS011;56185;48.526;9.044;2022-09-03T07:56:35;4.97;;;2.67;;
69083;SDS011;56185;48.526;9.044;2022-09-03T07:59:01;5.25;;;2.75;;
69083;SDS011;56185;48.526;9.044;2022-09-03T08:01:27;5.22;;;3.30;;
69083;SDS011;56185;48.526;9.044;2022-09-03T08:03:53;3.25;;;2.83;;
69083;SDS011;56185;48.526;9.044;2022-09-03T08:06:20;4.88;;;2.70;;
69083;SDS011;56185;48.526;9.044;2022-09-03T08:08:47;4.70;;;2.97;;
69083;SDS011;56185;48.526;9.044;2022-09-03T08:11:14;3.92;;;2.60;;
69083;SDS011;56185;48.526;9.044;2022-09-03T08:13:42;3.70;;;2.65;;
69083;SDS011;56185;48.526;9.044;2022-09-03T08:16:10;4.28;;;2.70;;
69083;SDS011;56185;48.526;9.044;2022-09-03T08:18:37;3.72;;;2.90;;
69083;SDS011;56185;48.526;9.044;2022-09-03T08:21:03;4.30;;;3.00;;
69083;SDS011;56185;48.526;9.044;2022-09-03T08:23:36;3.22;;;2.58;;
69083;SDS011;56185;48.526;9.044;2022-09-03T08:26:06;3.58;;;2.70;;
69083;SDS011;56185;48.526;9.044;2022-09-03T08:28:31;3.05;;;2.47;;
69083;SDS011;56185;48.526;9.044;2022-09-03T08:30:57;2.55;;;2.28;;
69083;SDS011;56185;48.526;9.044;2022-09-03T08:33:22;4.13;;;2.67;;
69083;SDS011;56185;48.526;9.044;2022-09-03T08:35:51;4.22;;;2.67;;
69083;SDS011;56185;48.526;9.044;2022-09-03T08:38:17;3.25;;;2.45;;
69083;SDS011;56185;48.526;9.044;2022-09-03T08:40:42;4.33;;;2.67;;
69083;SDS011;56185;48.526;9.044;2022-09-03T08:43:14;3.47;;;2.23;;
69083;SDS011;56185;48.526;9.044;2022-09-03T08:45:41;2.83;;;2.22;;
69083;SDS011;56185;48.526;9.044;2022-09-03T08:48:15;2.92;;;2.20;;
69083;SDS011;56185;48.526;9.044;2022-09-03T08:50:46;3.08;;;2.28;;
69083;SDS011;56185;48.526;9.044;2022-09-03T08:53:15;3.65;;;2.50;;
69083;SDS011;56185;48.526;9.044;2022-09-03T08:56:06;4.00;;;2.30;;
69083;SDS011;56185;48.526;9.044;2022-09-03T08:58:34;3.10;;;2.45;;
69083;SDS011;56185;48.526;9.044;2022-09-03T09:14:31;2.58;;;2.20;;
69083;SDS011;56185;48.526;9.044;2022-09-03T09:22:26;2.47;;;2.00;;
69083;SDS011;56185;48.526;9.044;2022-09-03T09:24:55;4.93;;;2.10;;
69083;SDS011;56185;48.526;9.044;2022-09-03T09:27:25;3.15;;;2.08;;
69083;SDS011;56185;48.526;9.044;2022-09-03T09:29:51;3.38;;;1.80;;
69083;SDS011;56185;48.526;9.044;2022-09-03T09:32:18;2.80;;;2.10;;
69083;SDS011;56185;48.526;9.044;2022-09-03T09:34:44;3.60;;;2.20;;
69083;SDS011;56185;48.526;9.044;2022-09-03T09:37:13;2.80;;;1.80;;
69083;SDS011;56185;48.526;9.044;2022-09-03T09:39:40;3.47;;;2.15;;
69083;SDS011;56185;48.526;9.044;2022-09-03T09:42:20;3.63;;;1.95;;
69083;SDS011;56185;48.526;9.044;2022-09-03T09:44:46;3.92;;;2.08;;
69083;SDS011;56185;48.526;9.044;2022-09-03T09:50:02;3.15;;;1.90;;
69083;SDS011;56185;48.526;9.044;2022-09-03T09:52:28;2.72;;;2.30;;
69083;SDS011;56185;48.526;9.044;2022-09-03T09:55:06;2.88;;;1.85;;
69083;SDS011;56185;48.526;9.044;2022-09-03T09:57:31;3.17;;;2.03;;
69083;SDS011;56185;48.526;9.044;2022-09-03T10:00:04;2.77;;;2.10;;
69083;SDS011;56185;48.526;9.044;2022-09-03T10:02:33;3.50;;;2.10;;
69083;SDS011;56185;48.526;9.044;2022-09-03T10:05:00;3.67;;;2.30;;
69083;SDS011;56185;48.526;9.044;2022-09-03T10:07:37;3.03;;;2.28;;
69083;SDS011;56185;48.526;9.044;2022-09-03T10:10:07;3.17;;;2.22;;
69083;SDS011;56185;48.526;9.044;2022-09-03T10:12:41;3.47;;;2.20;;
69083;SDS011;56185;48.526;9.044;2022-09-03T10:15:22;3.38;;;2.47;;
69083;SDS011;56185;48.526;9.044;2022-09-03T10:17:56;4.90;;;2.05;;
69083;SDS011;56185;48.526;9.044;2022-09-03T10:23:14;4.07;;;2.40;;
69083;SDS011;56185;48.526;9.044;2022-09-03T10:33:33;3.05;;;2.40;;
69083;SDS011;56185;48.526;9.044;2022-09-03T10:38:39;5.22;;;2.10;;
69083;SDS011;56185;48.526;9.044;2022-09-03T10:52:25;2.67;;;2.20;;
69083;SDS011;56185;48.526;9.044;2022-09-03T10:55:12;3.55;;;2.20;;
69083;SDS011;56185;48.526;9.044;2022-09-03T10:57:55;4.28;;;2.30;;
69083;SDS011;56185;48.526;9.044;2022-09-03T11:00:26;2.70;;;2.23;;
69083;SDS011;56185;48.526;9.044;2022-09-03T11:05:59;3.05;;;2.13;;
69083;SDS011;56185;48.526;9.044;2022-09-03T11:08:30;2.30;;;2.00;;
69083;SDS011;56185;48.526;9.044;2022-09-03T11:11:16;3.10;;;2.20;;
69083;SDS011;56185;48.526;9.044;2022-09-03T11:13:46;3.30;;;2.30;;
69083;SDS011;56185;48.526;9.044;2022-09-03T11:16:24;2.78;;;2.10;;
69083;SDS011;56185;48.526;9.044;2022-09-03T11:18:56;3.25;;;2.10;;
69083;SDS011;56185;48.526;9.044;2022-09-03T11:21:27;2.85;;;2.00;;
69083;SDS011;56185;48.526;9.044;2022-09-03T11:26:59;6.22;;;2.40;;
69083;SDS011;56185;48.526;9.044;2022-09-03T11:29:40;3.60;;;2.17;;
69083;SDS011;56185;48.526;9.044;2022-09-03T11:32:15;6.03;;;2.90;;
69083;SDS011;56185;48.526;9.044;2022-09-03T11:34:46;4.10;;;2.88;;
69083;SDS011;56185;48.526;9.044;2022-09-03T11:39:51;2.88;;;2.00;;
69083;SDS011;56185;48.526;9.044;2022-09-03T11:44:58;1.92;;;1.15;;
69083;SDS011;56185;48.526;9.044;2022-09-03T11:47:38;1.85;;;1.10;;
69083;SDS011;56185;48.526;9.044;2022-09-03T11:50:06;4.85;;;1.60;;
69083;SDS011;56185;48.526;9.044;2022-09-03T11:52:40;6.72;;;1.50;;
69083;SDS011;56185;48.526;9.044;2022-09-03T11:55:06;3.80;;;1.60;;
69083;SDS011;56185;48.526;9.044;2022-09-03T11:57:31;4.05;;;1.40;;
69083;SDS011;56185;48.526;9.044;2022-09-03T12:00:11;4.63;;;1.30;;
69083;SDS011;56185;48.526;9.044;2022-09-03T12:02:46;2.63;;;1.20;;
69083;SDS011;56185;48.526;9.044;2022-09-03T12:05:36;3.10;;;1.10;;
69083;SDS011;56185;48.526;9.044;2022-09-03T12:16:35;4.60;;;1.48;;
69083;SDS011;56185;48.526;9.044;2022-09-03T12:21:46;5.22;;;1.95;;
69083;SDS011;56185;48.526;9.044;2022-09-03T12:24:13;5.85;;;2.33;;
69083;SDS011;56185;48.526;9.044;2022-09-03T12:26:40;2.33;;;1.52;;
69083;SDS011;56185;48.526;9.044;2022-09-03T12:29:06;3.45;;;1.20;;
69083;SDS011;56185;48.526;9.044;2022-09-03T12:31:46;2.67;;;1.40;;
69083;SDS011;56185;48.526;9.044;2022-09-03T12:34:14;2.22;;;1.10;;
69083;SDS011;56185;48.526;9.044;2022-09-03T12:36:47;2.47;;;1.27;;
69083;SDS011;56185;48.526;9.044;2022-09-03T12:39:24;2.33;;;1.20;;
69083;SDS011;56185;48.526;9.044;2022-09-03T12:44:26;2.22;;;1.30;;
69083;SDS011;56185;48.526;9.044;2022-09-03T12:49:34;4.05;;;1.15;;
69083;SDS011;56185;48.526;9.044;2022-09-03T12:52:08;1.83;;;1.10;;
69083;SDS011;56185;48.526;9.044;2022-09-03T12:57:30;3.40;;;1.20;;
69083;SDS011;56185;48.526;9.044;2022-09-03T13:00:07;2.95;;;1.00;;
69083;SDS011;56185;48.526;9.044;2022-09-03T13:07:49;1.60;;;1.00;;
69083;SDS011;56185;48.526;9.044;2022-09-03T13:10:28;2.53;;;1.20;;
69083;SDS011;56185;48.526;9.044;2022-09-03T13:12:59;2.33;;;1.20;;
69083;SDS011;56185;48.526;9.044;2022-09-03T13:15:26;2.95;;;1.05;;
69083;SDS011;56185;48.526;9.044;2022-09-03T13:21:05;2.10;;;1.17;;
69083;SDS011;56185;48.526;9.044;2022-09-03T13:23:42;2.30;;;0.98;;
69083;SDS011;56185;48.526;9.044;2022-09-03T13:26:31;2.25;;;1.13;;
69083;SDS011;56185;48.526;9.044;2022-09-03T13:29:28;3.63;;;1.10;;
69083;SDS011;56185;48.526;9.044;2022-09-03T13:38:28;4.10;;;1.08;;
69083;SDS011;56185;48.526;9.044;2022-09-03T13:41:08;1.80;;;1.13;;
69083;SDS011;56185;48.526;9.044;2022-09-03T13:48:42;1.92;;;1.10;;
69083;SDS011;56185;48.526;9.044;2022-09-03T13:51:18;2.53;;;1.10;;
69083;SDS011;56185;48.526;9.044;2022-09-03T14:04:21;2.13;;;1.08;;
69083;SDS011;56185;48.526;9.044;2022-09-03T14:06:58;1.42;;;1.00;;
69083;SDS011;56185;48.526;9.044;2022-09-03T14:09:32;1.98;;;1.13;;
69083;SDS011;56185;48.526;9.044;2022-09-03T14:15:15;3.85;;;1.10;;
69083;SDS011;56185;48.526;9.044;2022-09-03T14:17:49;2.40;;;1.05;;
69083;SDS011;56185;48.526;9.044;2022-09-03T14:20:24;1.60;;;0.90;;
69083;SDS011;56185;48.526;9.044;2022-09-03T14:25:24;1.70;;;1.00;;
69083;SDS011;56185;48.526;9.044;2022-09-03T14:27:51;2.00;;;0.90;;
69083;SDS011;56185;48.526;9.044;2022-09-03T14:30:18;2.10;;;0.90;;
69083;SDS011;56185;48.526;9.044;2022-09-03T14:33:09;1.52;;;0.70;;
69083;SDS011;56185;48.526;9.044;2022-09-03T14:35:39;1.77;;;1.08;;
69083;SDS011;56185;48.526;9.044;2022-09-03T14:38:31;1.40;;;0.80;;
69083;SDS011;56185;48.526;9.044;2022-09-03T14:46:16;1.00;;;0.77;;
69083;SDS011;56185;48.526;9.044;2022-09-03T15:00:17;2.65;;;0.90;;
69083;SDS011;56185;48.526;9.044;2022-09-03T15:12:00;1.88;;;0.80;;
69083;SDS011;56185;48.526;9.044;2022-09-03T15:17:06;2.00;;;0.90;;
69083;SDS011;56185;48.526;9.044;2022-09-03T15:19:52;1.83;;;0.93;;
69083;SDS011;56185;48.526;9.044;2022-09-03T15:27:49;0.97;;;0.70;;
69083;SDS011;56185;48.526;9.044;2022-09-03T15:30:42;2.58;;;0.82;;
69083;SDS011;56185;48.526;9.044;2022-09-03T15:41:24;1.10;;;0.90;;
69083;SDS011;56185;48.526;9.044;2022-09-03T15:44:01;1.25;;;0.80;;
69083;SDS011;56185;48.526;9.044;2022-09-03T15:49:22;1.90;;;1.00;;
69083;SDS011;56185;48.526;9.044;2022-09-03T15:58:09;1.75;;;1.10;;
69083;SDS011;56185;48.526;9.044;2022-09-03T16:04:06;2.10;;;1.02;;
69083;SDS011;56185;48.526;9.044;2022-09-03T16:09:34;1.30;;;1.00;;
69083;SDS011;56185;48.526;9.044;2022-09-03T16:12:15;2.60;;;1.70;;
69083;SDS011;56185;48.526;9.044;2022-09-03T16:17:48;1.95;;;1.10;;
69083;SDS011;56185;48.526;9.044;2022-09-03T16:23:15;2.03;;;1.13;;
69083;SDS011;56185;48.526;9.044;2022-09-03T16:25:51;2.88;;;1.17;;
69083;SDS011;56185;48.526;9.044;2022-09-03T16:28:26;1.70;;;1.10;;
69083;SDS011;56185;48.526;9.044;2022-09-03T16:31:03;1.30;;;1.00;;
69083;SDS011;56185;48.526;9.044;2022-09-03T16:39:28;1.85;;;1.17;;
69083;SDS011;56185;48.526;9.044;2022-09-03T16:42:20;2.08;;;1.13;;
69083;SDS011;56185;48.526;9.044;2022-09-03T16:45:46;1.60;;;0.90;;
69083;SDS011;56185;48.526;9.044;2022-09-03T16:48:05;1.65;;;1.25;;
69083;SDS011;56185;48.526;9.044;2022-09-03T16:53:34;2.60;;;1.10;;
69083;SDS011;56185;48.526;9.044;2022-09-03T16:58:53;1.80;;;1.20;;
69083;SDS011;56185;48.526;9.044;2022-09-03T17:18:25;1.65;;;0.80;;
69083;SDS011;56185;48.526;9.044;2022-09-03T17:31:35;1.38;;;1.00;;
69083;SDS011;56185;48.526;9.044;2022-09-03T17:39:53;3.00;;;1.20;;
69083;SDS011;56185;48.526;9.044;2022-09-03T17:45:12;1.60;;;1.10;;
69083;SDS011;56185;48.526;9.044;2022-09-03T17:50:55;3.60;;;1.17;;
69083;SDS011;56185;48.526;9.044;2022-09-03T17:53:49;2.17;;;1.02;;
69083;SDS011;56185;48.526;9.044;2022-09-03T17:56:21;2.17;;;1.20;;
69083;SDS011;56185;48.526;9.044;2022-09-03T17:58:52;1.65;;;1.10;;
69083;SDS011;56185;48.526;9.044;2022-09-03T18:01:33;2.40;;;1.10;;
69083;SDS011;56185;48.526;9.044;2022-09-03T18:09:21;2.92;;;1.23;;
69083;SDS011;56185;48.526;9.044;2022-09-03T18:14:58;1.52;;;1.20;;
69083;SDS011;56185;48.526;9.044;2022-09-03T18:17:34;3.47;;;1.67;;
69083;SDS011;56185;48.526;9.044;2022-09-03T18:20:05;3.15;;;1.42;;
69083;SDS011;56185;48.526;9.044;2022-09-03T18:22:35;2.30;;;1.25;;
69083;SDS011;56185;48.526;9.044;2022-09-03T18:25:10;2.85;;;1.30;;
69083;SDS011;56185;48.526;9.044;2022-09-03T18:32:39;3.30;;;1.38;;
69083;SDS011;56185;48.526;9.044;2022-09-03T18:35:04;1.83;;;1.40;;
69083;SDS011;56185;48.526;9.044;2022-09-03T18:37:31;5.45;;;1.60;;
69083;SDS011;56185;48.526;9.044;2022-09-03T18:39:56;2.90;;;1.40;;
69083;SDS011;56185;48.526;9.044;2022-09-03T18:45:21;5.10;;;1.70;;
69083;SDS011;56185;48.526;9.044;2022-09-03T19:01:33;2.45;;;1.30;;
69083;SDS011;56185;48.526;9.044;2022-09-03T19:09:33;2.40;;;1.60;;
69083;SDS011;56185;48.526;9.044;2022-09-03T19:15:03;3.77;;;1.50;;
69083;SDS011;56185;48.526;9.044;2022-09-03T19:20:17;3.08;;;1.67;;
69083;SDS011;56185;48.526;9.044;2022-09-03T19:22:55;3.95;;;1.63;;
69083;SDS011;56185;48.526;9.044;2022-09-03T19:25:20;3.50;;;1.60;;
69083;SDS011;56185;48.526;9.044;2022-09-03T19:41:29;3.57;;;1.80;;
69083;SDS011;56185;48.526;9.044;2022-09-03T19:46:52;5.07;;;2.00;;
69083;SDS011;56185;48.526;9.044;2022-09-03T19:52:29;3.90;;;1.80;;
69083;SDS011;56185;48.526;9.044;2022-09-03T19:54:57;5.13;;;1.75;;
69083;SDS011;56185;48.526;9.044;2022-09-03T19:57:23;3.67;;;1.70;;
69083;SDS011;56185;48.526;9.044;2022-09-03T19:59:52;2.50;;;1.42;;
69083;SDS011;56185;48.526;9.044;2022-09-03T20:02:17;2.43;;;1.60;;
69083;SDS011;56185;48.526;9.044;2022-09-03T20:04:44;3.80;;;1.63;;
69083;SDS011;56185;48.526;9.044;2022-09-03T20:07:15;3.20;;;1.55;;
69083;SDS011;56185;48.526;9.044;2022-09-03T20:09:42;3.88;;;1.65;;
69083;SDS011;56185;48.526;9.044;2022-09-03T20:12:08;2.55;;;1.77;;
69083;SDS011;56185;48.526;9.044;2022-09-03T20:14:34;2.60;;;1.70;;
69083;SDS011;56185;48.526;9.044;2022-09-03T20:19:36;3.33;;;1.50;;
69083;SDS011;56185;48.526;9.044;2022-09-03T20:27:37;2.67;;;1.80;;
69083;SDS011;56185;48.526;9.044;2022-09-03T20:30:19;3.03;;;1.70;;
69083;SDS011;56185;48.526;9.044;2022-09-03T20:33:01;2.45;;;1.80;;
69083;SDS011;56185;48.526;9.044;2022-09-03T20:38:46;4.18;;;1.60;;
69083;SDS011;56185;48.526;9.044;2022-09-03T20:41:31;2.40;;;1.65;;
69083;SDS011;56185;48.526;9.044;2022-09-03T20:44:14;3.30;;;1.70;;
69083;SDS011;56185;48.526;9.044;2022-09-03T20:50:14;4.13;;;1.77;;
69083;SDS011;56185;48.526;9.044;2022-09-03T20:55:17;2.72;;;1.80;;
69083;SDS011;56185;48.526;9.044;2022-09-03T21:11:17;3.95;;;2.20;;